createdAt,value
2022-08-21T00:00:25.192Z,5.35
2022-08-21T00:01:30.192Z,5.37
2022-08-21T00:02:33.174Z,4.65
2022-08-21T00:03:36.319Z,5.28
2022-08-21T00:04:39.361Z,4.85
2022-08-21T00:05:57.653Z,4.00
2022-08-21T00:07:00.572Z,4.90
2022-08-21T00:08:04.572Z,5.53
2022-08-21T00:09:08.959Z,9.40
2022-08-21T00:10:13.392Z,4.82
2022-08-21T00:11:16.354Z,6.35
2022-08-21T00:12:19.507Z,5.20
2022-08-21T00:13:23.170Z,4.40
2022-08-21T00:14:33.697Z,6.05
2022-08-21T00:15:38.823Z,10.18
2022-08-21T00:16:42.120Z,5.40
2022-08-21T00:17:49.920Z,4.70
2022-08-21T00:18:52.910Z,5.15
2022-08-21T00:19:55.938Z,5.25
2022-08-21T00:20:58.968Z,5.60
2022-08-21T00:22:02.298Z,5.30
2022-08-21T00:23:06.151Z,4.82
2022-08-21T00:24:09.330Z,6.25
2022-08-21T00:25:13.943Z,6.55
2022-08-21T00:26:17.135Z,4.70
2022-08-21T00:27:20.134Z,4.90
2022-08-21T00:28:23.277Z,5.20
2022-08-21T00:29:26.228Z,5.50
2022-08-21T00:30:29.912Z,7.80
2022-08-21T00:31:32.883Z,4.72
2022-08-21T00:32:39.409Z,5.20
2022-08-21T00:33:43.829Z,5.43
2022-08-21T00:34:46.812Z,7.03
2022-08-21T00:35:49.767Z,6.28
2022-08-21T00:36:52.803Z,6.28
2022-08-21T00:37:56.339Z,6.47
2022-08-21T00:38:59.349Z,7.93
2022-08-21T00:40:02.629Z,8.23
2022-08-21T00:41:37.274Z,5.65
2022-08-21T00:42:32.017Z,7.03
2022-08-21T00:43:38.300Z,6.37
2022-08-21T00:44:41.471Z,7.22
2022-08-21T00:45:45.247Z,7.00
2022-08-21T00:46:48.812Z,8.13
2022-08-21T00:47:53.622Z,6.70
2022-08-21T00:48:58.872Z,5.37
2022-08-21T00:50:02.536Z,5.90
2022-08-21T00:51:08.467Z,6.95
2022-08-21T00:52:18.736Z,6.37
2022-08-21T00:53:21.731Z,7.32
2022-08-21T00:54:26.964Z,6.45
2022-08-21T00:55:32.673Z,8.32
2022-08-21T00:56:36.362Z,6.68
2022-08-21T00:57:53.818Z,9.15
2022-08-21T00:59:00.093Z,7.35
2022-08-21T01:00:07.844Z,6.68
2022-08-21T01:01:11.167Z,6.37
2022-08-21T01:02:14.995Z,8.32
2022-08-21T01:03:23.870Z,6.95
2022-08-21T01:04:27.261Z,7.05
2022-08-21T01:05:30.131Z,7.50
2022-08-21T01:06:33.692Z,8.38
2022-08-21T01:07:37.611Z,8.63
2022-08-21T01:08:40.775Z,6.68
2022-08-21T01:09:50.422Z,6.37
2022-08-21T01:10:55.053Z,7.70
2022-08-21T01:11:58.218Z,6.85
2022-08-21T01:13:01.324Z,7.03
2022-08-21T01:14:04.398Z,7.82
2022-08-21T01:15:08.951Z,7.68
2022-08-21T01:16:12.772Z,9.45
2022-08-21T01:17:17.279Z,7.10
2022-08-21T01:18:21.984Z,6.85
2022-08-21T01:19:26.160Z,7.80
2022-08-21T01:20:32.556Z,9.27
2022-08-21T01:21:35.944Z,7.50
2022-08-21T01:22:39.775Z,7.00
2022-08-21T01:23:47.646Z,7.28
2022-08-21T01:24:51.409Z,6.97
2022-08-21T01:25:54.495Z,7.43
2022-08-21T01:26:57.860Z,7.80
2022-08-21T01:28:08.064Z,10.02
2022-08-21T01:29:24.176Z,6.90
2022-08-21T01:30:28.593Z,10.80
2022-08-21T01:31:34.427Z,10.93
2022-08-21T01:32:37.648Z,8.55
2022-08-21T01:33:41.184Z,9.73
2022-08-21T01:34:47.279Z,10.25
2022-08-21T01:35:50.488Z,12.82
2022-08-21T01:36:53.571Z,8.27
2022-08-21T01:37:56.554Z,9.43
2022-08-21T01:38:59.782Z,11.90
2022-08-21T01:40:03.185Z,8.48
2022-08-21T01:41:06.320Z,8.25
2022-08-21T01:42:09.954Z,11.50
2022-08-21T01:43:13.065Z,13.65
2022-08-21T01:44:16.022Z,10.70
2022-08-21T01:45:19.214Z,10.68
2022-08-21T01:46:25.206Z,10.27
2022-08-21T01:47:28.388Z,12.07
2022-08-21T01:48:32.321Z,14.07
2022-08-21T01:49:36.531Z,11.07
2022-08-21T01:50:39.995Z,11.38
2022-08-21T01:51:43.534Z,15.25
2022-08-21T01:52:46.881Z,10.05
2022-08-21T01:53:49.911Z,13.15
2022-08-21T01:54:55.181Z,10.63
2022-08-21T01:55:58.776Z,11.68
2022-08-21T01:57:06.165Z,9.65
2022-08-21T01:58:09.190Z,9.73
2022-08-21T01:59:13.576Z,10.20
2022-08-21T02:00:19.945Z,10.60
2022-08-21T02:01:23.035Z,9.90
2022-08-21T02:02:26.307Z,9.23
2022-08-21T02:03:35.883Z,16.45
2022-08-21T02:04:39.388Z,10.98
2022-08-21T02:05:42.567Z,10.93
2022-08-21T02:06:45.658Z,14.63
2022-08-21T02:07:55.145Z,13.07
2022-08-21T02:08:58.154Z,12.90
2022-08-21T02:10:01.722Z,11.27
2022-08-21T02:11:05.398Z,11.10
2022-08-21T02:12:08.461Z,13.15
2022-08-21T02:13:13.341Z,13.95
2022-08-21T02:14:27.199Z,10.18
2022-08-21T02:15:36.320Z,9.57
2022-08-21T02:16:41.063Z,8.63
2022-08-21T02:17:47.508Z,9.93
2022-08-21T02:18:50.497Z,13.55
2022-08-21T02:19:53.659Z,12.02
2022-08-21T02:20:56.953Z,14.75
2022-08-21T02:22:00.047Z,14.60
2022-08-21T02:23:04.175Z,8.93
2022-08-21T02:24:07.541Z,8.52
2022-08-21T02:25:10.783Z,9.90
2022-08-21T02:26:14.210Z,11.20
2022-08-21T02:27:17.213Z,12.50
2022-08-21T02:28:28.453Z,11.70
2022-08-21T02:29:31.496Z,12.90
2022-08-21T02:30:39.302Z,11.35
2022-08-21T02:31:42.345Z,13.13
2022-08-21T02:32:45.260Z,12.30
2022-08-21T02:33:48.581Z,11.52
2022-08-21T02:34:51.519Z,10.45
2022-08-21T02:35:56.158Z,11.50
2022-08-21T02:36:59.825Z,11.77
2022-08-21T02:38:07.005Z,11.52
2022-08-21T02:39:16.082Z,15.68
2022-08-21T02:40:33.828Z,9.35
2022-08-21T02:41:36.750Z,12.65
2022-08-21T02:42:41.237Z,14.10
2022-08-21T02:43:44.335Z,13.70
2022-08-21T02:44:47.363Z,10.45
2022-08-21T02:45:51.694Z,10.65
2022-08-21T02:46:54.881Z,11.80
2022-08-21T02:48:00.599Z,14.48
2022-08-21T02:49:04.544Z,13.80
2022-08-21T02:50:08.955Z,8.73
2022-08-21T02:51:19.550Z,13.45
2022-08-21T02:52:23.098Z,17.77
2022-08-21T02:53:27.639Z,10.95
2022-08-21T02:54:30.603Z,9.82
2022-08-21T02:55:36.246Z,11.10
2022-08-21T02:56:39.279Z,15.02
2022-08-21T02:57:42.339Z,10.80
2022-08-21T02:58:50.450Z,18.35
2022-08-21T02:59:53.414Z,10.55
2022-08-21T03:00:56.470Z,11.63
2022-08-21T03:01:59.429Z,11.93
2022-08-21T03:03:02.966Z,12.82
2022-08-21T03:04:05.942Z,10.35
2022-08-21T03:05:11.272Z,9.40
2022-08-21T03:06:16.569Z,17.70
2022-08-21T03:07:19.616Z,9.48
2022-08-21T03:08:26.519Z,10.27
2022-08-21T03:09:30.807Z,11.95
2022-08-21T03:10:34.960Z,9.55
2022-08-21T03:11:38.147Z,9.07
2022-08-21T03:12:41.376Z,8.70
2022-08-21T03:13:45.028Z,11.98
2022-08-21T03:14:48.103Z,9.55
2022-08-21T03:15:51.538Z,9.20
2022-08-21T03:16:54.593Z,11.73
2022-08-21T03:17:57.742Z,12.48
2022-08-21T03:19:01.046Z,11.12
2022-08-21T03:20:06.914Z,12.48
2022-08-21T03:21:10.119Z,8.05
2022-08-21T03:22:13.053Z,11.68
2022-08-21T03:23:19.131Z,13.93
2022-08-21T03:24:22.765Z,11.40
2022-08-21T03:25:39.962Z,17.27
2022-08-21T03:26:44.088Z,10.60
2022-08-21T03:27:50.386Z,11.73
2022-08-21T03:28:57.256Z,9.88
2022-08-21T03:30:04.180Z,9.65
2022-08-21T03:31:07.478Z,9.00
2022-08-21T03:32:10.577Z,11.45
2022-08-21T03:34:22.360Z,11.55
2022-08-21T03:35:26.243Z,11.02
2022-08-21T03:36:29.159Z,10.82
2022-08-21T03:37:33.507Z,9.65
2022-08-21T03:38:38.397Z,11.77
2022-08-21T03:39:42.950Z,17.40
2022-08-21T03:40:46.415Z,10.45
2022-08-21T03:41:49.312Z,11.07
2022-08-21T03:42:52.427Z,16.65
2022-08-21T03:43:55.355Z,11.23
2022-08-21T03:44:58.365Z,14.00
2022-08-21T03:46:06.140Z,12.07
2022-08-21T03:47:10.810Z,10.65
2022-08-21T03:48:14.142Z,11.48
2022-08-21T03:49:17.246Z,11.93
2022-08-21T03:50:20.589Z,13.00
2022-08-21T03:51:25.172Z,9.90
2022-08-21T03:52:28.097Z,10.02
2022-08-21T03:53:31.589Z,10.52
2022-08-21T03:54:34.535Z,14.45
2022-08-21T03:55:37.433Z,13.62
2022-08-21T03:56:41.023Z,11.88
2022-08-21T03:57:43.952Z,12.60
2022-08-21T03:58:46.904Z,10.70
2022-08-21T03:59:49.859Z,12.18
2022-08-21T04:00:57.734Z,12.35
2022-08-21T04:02:03.051Z,12.68
2022-08-21T04:03:06.191Z,12.82
2022-08-21T04:04:09.270Z,11.55
2022-08-21T04:05:14.283Z,12.27
2022-08-21T04:06:17.400Z,11.27
2022-08-21T04:07:20.552Z,14.55
2022-08-21T04:08:23.683Z,12.60
2022-08-21T04:09:29.344Z,11.05
2022-08-21T04:10:35.793Z,13.15
2022-08-21T04:11:38.907Z,14.07
2022-08-21T04:12:41.914Z,12.57
2022-08-21T04:13:44.921Z,12.45
2022-08-21T04:14:48.023Z,12.55
2022-08-21T04:15:50.957Z,11.90
2022-08-21T04:16:54.042Z,12.32
2022-08-21T04:17:57.135Z,13.43
2022-08-21T04:19:00.224Z,13.23
2022-08-21T04:20:03.215Z,15.90
2022-08-21T04:21:08.847Z,12.50
2022-08-21T04:22:13.733Z,10.98
2022-08-21T04:23:23.873Z,12.45
2022-08-21T04:24:27.750Z,11.55
2022-08-21T04:25:33.090Z,14.95
2022-08-21T04:26:37.056Z,12.30
2022-08-21T04:27:41.583Z,12.07
2022-08-21T04:28:44.968Z,10.88
2022-08-21T04:29:48.260Z,10.55
2022-08-21T04:30:53.214Z,17.80
2022-08-21T04:31:56.393Z,15.07
2022-08-21T04:33:00.053Z,14.30
2022-08-21T04:34:03.520Z,10.52
2022-08-21T04:35:11.256Z,12.32
2022-08-21T04:36:14.243Z,11.35
2022-08-21T04:37:17.338Z,15.95
2022-08-21T04:38:20.731Z,11.50
2022-08-21T04:39:25.186Z,14.13
2022-08-21T04:40:32.994Z,13.60
2022-08-21T04:41:37.157Z,11.38
2022-08-21T04:42:46.993Z,11.43
2022-08-21T04:43:50.580Z,11.93
2022-08-21T04:44:53.860Z,12.75
2022-08-21T04:45:56.765Z,11.98
2022-08-21T04:47:03.308Z,15.95
2022-08-21T04:48:13.946Z,11.02
2022-08-21T04:49:17.267Z,13.00
2022-08-21T04:50:23.131Z,11.88
2022-08-21T04:51:31.403Z,9.95
2022-08-21T04:52:34.472Z,17.65
2022-08-21T04:53:42.848Z,9.85
2022-08-21T04:54:50.185Z,15.35
2022-08-21T04:55:58.660Z,9.50
2022-08-21T04:57:06.643Z,10.20
2022-08-21T04:58:12.948Z,9.98
2022-08-21T04:59:29.627Z,9.32
2022-08-21T05:00:32.525Z,10.70
2022-08-21T05:01:37.220Z,9.45
2022-08-21T05:02:41.715Z,13.25
2022-08-21T05:03:46.268Z,10.35
2022-08-21T05:04:55.770Z,13.95
2022-08-21T05:05:59.878Z,7.72
2022-08-21T05:07:05.623Z,9.50
2022-08-21T05:08:13.664Z,7.05
2022-08-21T05:09:19.627Z,8.25
2022-08-21T05:10:22.981Z,6.40
2022-08-21T05:11:26.179Z,9.60
2022-08-21T05:12:29.365Z,12.10
2022-08-21T05:13:33.030Z,8.25
2022-08-21T05:14:36.443Z,9.27
2022-08-21T05:15:40.763Z,6.40
2022-08-21T05:16:45.449Z,7.70
2022-08-21T05:17:53.675Z,7.80
2022-08-21T05:19:04.568Z,12.10
2022-08-21T05:20:08.078Z,8.15
2022-08-21T05:21:11.234Z,6.70
2022-08-21T05:22:21.954Z,7.57
2022-08-21T05:23:28.214Z,8.50
2022-08-21T05:24:31.136Z,13.15
2022-08-21T05:25:34.031Z,10.07
2022-08-21T05:26:45.433Z,8.07
2022-08-21T05:27:50.120Z,8.07
2022-08-21T05:28:55.448Z,7.57
2022-08-21T05:30:00.643Z,5.70
2022-08-21T05:31:03.535Z,7.32
2022-08-21T05:32:11.958Z,6.75
2022-08-21T05:33:15.003Z,8.38
2022-08-21T05:34:24.472Z,8.80
2022-08-21T05:35:28.499Z,6.07
2022-08-21T05:36:32.233Z,9.40
2022-08-21T05:37:35.425Z,5.95
2022-08-21T05:38:38.474Z,8.20
2022-08-21T05:40:09.595Z,6.57
2022-08-21T05:41:06.221Z,6.37
2022-08-21T05:42:09.246Z,8.30
2022-08-21T05:43:12.299Z,8.40
2022-08-21T05:44:15.396Z,11.45
2022-08-21T05:45:18.476Z,7.50
2022-08-21T05:46:42.103Z,5.85
2022-08-21T05:47:44.960Z,6.22
2022-08-21T05:48:48.067Z,6.95
2022-08-21T05:49:50.927Z,8.48
2022-08-21T05:50:55.074Z,7.07
2022-08-21T05:51:58.182Z,5.95
2022-08-21T05:53:07.017Z,8.10
2022-08-21T05:54:10.564Z,7.97
2022-08-21T05:55:13.650Z,6.93
2022-08-21T05:56:16.828Z,7.85
2022-08-21T05:57:19.852Z,7.40
2022-08-21T05:58:24.141Z,6.87
2022-08-21T05:59:28.853Z,5.05
2022-08-21T06:00:33.429Z,8.77
2022-08-21T06:01:37.111Z,8.18
2022-08-21T06:02:41.177Z,6.75
2022-08-21T06:03:49.465Z,6.62
2022-08-21T06:04:52.356Z,6.20
2022-08-21T06:05:56.885Z,7.05
2022-08-21T06:06:59.868Z,6.43
2022-08-21T06:08:03.328Z,6.50
2022-08-21T06:09:07.240Z,5.78
2022-08-21T06:10:10.732Z,7.47
2022-08-21T06:11:17.453Z,6.07
2022-08-21T06:12:20.315Z,8.70
2022-08-21T06:13:24.304Z,5.20
2022-08-21T06:14:27.203Z,5.22
2022-08-21T06:15:31.427Z,6.22
2022-08-21T06:16:34.453Z,5.68
2022-08-21T06:17:38.425Z,9.38
2022-08-21T06:18:41.916Z,5.10
2022-08-21T06:19:46.402Z,5.87
2022-08-21T06:20:49.408Z,6.43
2022-08-21T06:21:52.415Z,8.02
2022-08-21T06:22:55.597Z,8.70
2022-08-21T06:23:58.923Z,5.90
2022-08-21T06:25:01.783Z,6.43
2022-08-21T06:26:06.712Z,6.28
2022-08-21T06:27:09.633Z,6.07
2022-08-21T06:28:13.798Z,8.65
2022-08-21T06:29:21.102Z,6.03
2022-08-21T06:30:24.128Z,6.45
2022-08-21T06:31:28.846Z,6.97
2022-08-21T06:32:32.196Z,4.35
2022-08-21T06:33:35.155Z,7.90
2022-08-21T06:34:41.924Z,6.68
2022-08-21T06:35:44.875Z,6.47
2022-08-21T06:36:47.867Z,6.47
2022-08-21T06:37:50.735Z,5.22
2022-08-21T06:38:53.593Z,9.75
2022-08-21T06:39:56.670Z,6.75
2022-08-21T06:41:01.841Z,5.40
2022-08-21T06:42:10.193Z,7.57
2022-08-21T06:43:17.435Z,7.12
2022-08-21T06:44:20.266Z,7.80
2022-08-21T06:45:23.735Z,11.43
2022-08-21T06:46:29.539Z,6.93
2022-08-21T06:47:32.608Z,6.82
2022-08-21T06:48:35.644Z,4.95
2022-08-21T06:49:38.907Z,5.50
2022-08-21T06:50:42.455Z,7.80
2022-08-21T06:51:45.386Z,7.82
2022-08-21T06:52:48.409Z,7.65
2022-08-21T06:53:51.300Z,5.95
2022-08-21T06:54:54.184Z,5.82
2022-08-21T06:55:57.092Z,6.45
2022-08-21T06:56:59.972Z,6.25
2022-08-21T06:58:04.306Z,8.40
2022-08-21T06:59:07.465Z,8.25
2022-08-21T07:00:11.350Z,5.12
2022-08-21T07:01:14.465Z,7.05
2022-08-21T07:02:17.667Z,9.98
2022-08-21T07:03:23.057Z,5.82
2022-08-21T07:04:26.356Z,5.47
2022-08-21T07:05:31.201Z,5.00
2022-08-21T07:06:35.106Z,7.20
2022-08-21T07:07:38.281Z,5.78
2022-08-21T07:08:41.417Z,7.78
2022-08-21T07:09:44.503Z,8.75
2022-08-21T07:10:49.469Z,7.20
2022-08-21T07:11:57.271Z,6.35
2022-08-21T07:13:01.261Z,6.93
2022-08-21T07:14:05.611Z,6.50
2022-08-21T07:15:08.934Z,6.35
2022-08-21T07:16:12.100Z,8.18
2022-08-21T07:17:15.018Z,7.07
2022-08-21T07:18:18.595Z,7.68
2022-08-21T07:19:21.943Z,5.00
2022-08-21T07:20:24.985Z,7.43
2022-08-21T07:21:27.905Z,8.88
2022-08-21T07:23:43.506Z,9.35
2022-08-21T07:24:46.443Z,6.60
2022-08-21T07:25:49.499Z,7.12
2022-08-21T07:26:52.915Z,6.18
2022-08-21T07:27:56.574Z,6.18
2022-08-21T07:28:59.535Z,6.22
2022-08-21T07:30:02.589Z,6.47
2022-08-21T07:31:06.343Z,8.63
2022-08-21T07:32:09.235Z,7.03
2022-08-21T07:33:12.900Z,5.87
2022-08-21T07:34:16.066Z,5.78
2022-08-21T07:35:20.795Z,7.53
2022-08-21T07:36:24.090Z,8.60
2022-08-21T07:37:27.207Z,5.80
2022-08-21T07:38:30.231Z,4.95
2022-08-21T07:39:33.486Z,7.53
2022-08-21T07:40:36.642Z,5.47
2022-08-21T07:41:39.541Z,7.25
2022-08-21T07:42:44.838Z,8.20
2022-08-21T07:43:48.203Z,6.18
2022-08-21T07:44:51.304Z,7.25
2022-08-21T07:46:02.303Z,6.93
2022-08-21T07:47:05.354Z,5.47
2022-08-21T07:48:08.293Z,6.90
2022-08-21T07:49:11.192Z,7.62
2022-08-21T07:50:19.295Z,6.60
2022-08-21T07:51:26.673Z,6.45
2022-08-21T07:52:31.879Z,7.62
2022-08-21T07:53:36.974Z,8.43
2022-08-21T07:54:40.275Z,7.07
2022-08-21T07:55:44.073Z,10.27
2022-08-21T07:56:47.019Z,6.85
2022-08-21T07:57:50.439Z,8.48
2022-08-21T07:58:53.720Z,8.32
2022-08-21T07:59:56.770Z,7.28
2022-08-21T08:01:00.187Z,8.10
2022-08-21T08:02:03.143Z,6.30
2022-08-21T08:03:07.280Z,9.48
2022-08-21T08:04:10.222Z,9.02
2022-08-21T08:05:14.234Z,8.00
2022-08-21T08:06:20.778Z,9.85
2022-08-21T08:07:23.697Z,10.65
2022-08-21T08:08:27.227Z,9.38
2022-08-21T08:09:30.144Z,6.90
2022-08-21T08:10:33.381Z,7.00
2022-08-21T08:11:40.311Z,7.35
2022-08-21T08:12:44.463Z,8.88
2022-08-21T08:13:53.714Z,7.93
2022-08-21T08:15:01.223Z,6.87
2022-08-21T08:16:04.323Z,8.68
2022-08-21T08:17:07.172Z,7.57
2022-08-21T08:18:10.150Z,5.90
2022-08-21T08:19:13.019Z,6.25
2022-08-21T08:20:17.640Z,7.60
2022-08-21T08:21:22.154Z,6.10
2022-08-21T08:22:25.424Z,5.93
2022-08-21T08:23:29.430Z,5.87
2022-08-21T08:24:32.359Z,6.87
2022-08-21T08:25:36.508Z,8.02
2022-08-21T08:26:40.535Z,7.80
2022-08-21T08:27:43.548Z,6.20
2022-08-21T08:28:48.912Z,5.10
2022-08-21T08:29:52.615Z,7.32
2022-08-21T08:30:56.542Z,9.32
2022-08-21T08:32:03.463Z,6.75
2022-08-21T08:33:06.445Z,6.68
2022-08-21T08:34:09.337Z,6.32
2022-08-21T08:35:13.154Z,8.15
2022-08-21T08:36:19.790Z,6.70
2022-08-21T08:37:22.995Z,8.73
2022-08-21T08:38:32.535Z,8.20
2022-08-21T08:39:35.823Z,6.95
2022-08-21T08:41:05.503Z,6.05
2022-08-21T08:42:33.887Z,7.97
2022-08-21T08:43:37.043Z,8.23
2022-08-21T08:44:40.319Z,9.45
2022-08-21T08:45:48.047Z,5.95
2022-08-21T08:46:53.676Z,8.63
2022-08-21T08:48:04.934Z,8.73
2022-08-21T08:49:12.843Z,6.60
2022-08-21T08:50:22.776Z,6.87
2022-08-21T08:51:34.401Z,5.57
2022-08-21T08:52:44.157Z,7.80
2022-08-21T08:53:54.846Z,8.43
2022-08-21T08:55:05.543Z,8.68
2022-08-21T08:56:08.954Z,10.10
2022-08-21T08:57:18.289Z,7.30
2022-08-21T08:58:34.111Z,6.85
2022-08-21T08:59:44.216Z,7.53
2022-08-21T09:00:50.455Z,6.25
2022-08-21T09:01:53.555Z,9.40
2022-08-21T09:02:59.938Z,8.05
2022-08-21T09:04:03.156Z,7.28
2022-08-21T09:05:07.394Z,6.00
2022-08-21T09:06:38.689Z,8.60
2022-08-21T09:07:47.535Z,10.18
2022-08-21T09:09:10.315Z,6.47
2022-08-21T09:10:31.757Z,7.30
2022-08-21T09:11:41.644Z,9.63
2022-08-21T09:12:58.350Z,8.27
2022-08-21T09:14:28.470Z,6.70
2022-08-21T09:15:55.467Z,4.95
2022-08-21T09:17:19.995Z,7.47
2022-08-21T09:18:49.832Z,6.87
2022-08-21T09:20:20.168Z,7.18
2022-08-21T09:21:48.746Z,6.55
2022-08-21T09:23:19.324Z,7.25
2022-08-21T09:24:41.753Z,7.55
2022-08-21T09:26:11.236Z,6.30
2022-08-21T09:27:23.534Z,11.57
2022-08-21T09:28:28.026Z,9.18
2022-08-21T09:29:35.242Z,9.75
2022-08-21T09:30:42.078Z,7.90
2022-08-21T09:31:45.023Z,8.85
2022-08-21T09:32:47.900Z,7.80
2022-08-21T09:33:52.144Z,6.78
2022-08-21T09:35:06.082Z,7.45
2022-08-21T09:36:09.282Z,8.20
2022-08-21T09:37:23.479Z,7.15
2022-08-21T09:38:33.249Z,7.43
2022-08-21T09:39:43.535Z,6.90
2022-08-21T09:40:58.767Z,8.70
2022-08-21T09:42:06.369Z,8.68
2022-08-21T09:43:15.220Z,7.53
2022-08-21T09:44:33.088Z,8.27
2022-08-21T09:45:36.200Z,8.38
2022-08-21T09:46:39.306Z,8.70
2022-08-21T09:47:44.436Z,5.97
2022-08-21T09:48:54.990Z,7.35
2022-08-21T09:50:10.105Z,9.23
2022-08-21T09:51:18.132Z,7.15
2022-08-21T09:52:23.757Z,8.18
2022-08-21T09:53:35.719Z,8.68
2022-08-21T09:54:41.745Z,6.95
2022-08-21T09:56:19.242Z,8.52
2022-08-21T09:57:46.344Z,6.60
2022-08-21T09:58:51.880Z,8.05
2022-08-21T09:59:55.812Z,10.00
2022-08-21T10:01:03.637Z,7.50
2022-08-21T10:02:30.550Z,5.72
2022-08-21T10:03:41.319Z,6.57
2022-08-21T10:05:05.733Z,9.02
2022-08-21T10:06:11.994Z,6.07
2022-08-21T10:07:16.206Z,7.32
2022-08-21T10:08:21.642Z,6.45
2022-08-21T10:09:24.620Z,5.72
2022-08-21T10:10:32.281Z,6.47
2022-08-21T10:11:35.795Z,6.78
2022-08-21T10:12:49.414Z,8.00
2022-08-21T10:14:23.130Z,7.15
2022-08-21T10:15:50.996Z,9.60
2022-08-21T10:17:06.060Z,7.18
2022-08-21T10:18:21.528Z,7.40
2022-08-21T10:19:45.432Z,12.02
2022-08-21T10:21:01.480Z,8.15
2022-08-21T10:22:31.016Z,9.63
2022-08-21T10:24:02.451Z,9.82
2022-08-21T10:25:12.292Z,12.25
2022-08-21T10:26:34.268Z,7.70
2022-08-21T10:28:11.347Z,7.30
2022-08-21T10:29:45.362Z,10.25
2022-08-21T10:30:59.406Z,6.00
2022-08-21T10:32:26.281Z,6.43
2022-08-21T10:33:39.903Z,8.05
2022-08-21T10:35:00.994Z,12.13
2022-08-21T10:36:07.242Z,9.10
2022-08-21T10:37:58.220Z,6.90
2022-08-21T10:39:26.605Z,11.12
2022-08-21T10:40:51.238Z,7.78
2022-08-21T10:42:28.352Z,10.02
2022-08-21T10:44:10.048Z,13.45
2022-08-21T10:45:32.346Z,7.40
2022-08-21T10:47:13.783Z,6.45
2022-08-21T10:48:51.070Z,7.77
2022-08-21T10:50:04.923Z,6.72
2022-08-21T10:51:37.944Z,9.05
2022-08-21T10:52:58.649Z,6.93
2022-08-21T10:54:23.364Z,7.62
2022-08-21T10:55:41.739Z,8.05
2022-08-21T10:56:48.100Z,8.13
2022-08-21T10:57:58.543Z,9.23
2022-08-21T10:59:21.970Z,10.55
2022-08-21T11:00:31.407Z,10.05
2022-08-21T11:02:07.958Z,13.07
2022-08-21T11:03:47.277Z,7.82
2022-08-21T11:04:59.012Z,7.37
2022-08-21T11:06:32.453Z,9.43
2022-08-21T11:07:38.979Z,8.32
2022-08-21T11:08:47.632Z,6.25
2022-08-21T11:11:08.690Z,9.13
2022-08-21T11:12:37.337Z,6.57
2022-08-21T11:13:46.353Z,8.52
2022-08-21T11:15:29.225Z,10.07
2022-08-21T11:16:37.467Z,8.48
2022-08-21T11:17:52.137Z,9.20
2022-08-21T11:19:02.150Z,6.90
2022-08-21T11:20:15.145Z,8.65
2022-08-21T11:21:31.225Z,6.90
2022-08-21T11:23:03.798Z,7.70
2022-08-21T11:24:22.830Z,7.00
2022-08-21T11:25:37.287Z,6.47
2022-08-21T11:27:02.474Z,8.30
2022-08-21T11:28:15.233Z,7.65
2022-08-21T11:29:51.115Z,9.25
2022-08-21T11:30:56.676Z,6.90
2022-08-21T11:32:12.770Z,8.77
2022-08-21T11:33:31.310Z,7.75
2022-08-21T11:35:02.528Z,5.90
2022-08-21T11:36:26.834Z,7.20
2022-08-21T11:37:48.003Z,7.62
2022-08-21T11:39:14.227Z,7.10
2022-08-21T11:40:51.957Z,7.28
2022-08-21T11:42:12.423Z,10.77
2022-08-21T11:43:40.366Z,7.68
2022-08-21T11:44:43.193Z,8.05
2022-08-21T11:45:53.325Z,6.82
2022-08-21T11:47:27.015Z,9.23
2022-08-21T11:48:40.376Z,6.55
2022-08-21T11:49:46.083Z,8.77
2022-08-21T11:50:50.709Z,5.53
2022-08-21T11:52:13.043Z,6.85
2022-08-21T11:53:28.413Z,6.55
2022-08-21T11:54:45.961Z,12.45
2022-08-21T11:55:58.308Z,8.05
2022-08-21T11:57:26.294Z,8.25
2022-08-21T11:58:38.131Z,9.27
2022-08-21T11:59:48.466Z,7.43
2022-08-21T12:00:57.540Z,9.63
2022-08-21T12:02:01.332Z,8.82
2022-08-21T12:03:18.377Z,9.10
2022-08-21T12:04:32.201Z,7.12
2022-08-21T12:05:45.519Z,8.30
2022-08-21T12:06:50.651Z,8.20
2022-08-21T12:08:13.734Z,9.05
2022-08-21T12:09:25.985Z,5.95
2022-08-21T12:10:35.182Z,8.85
2022-08-21T12:11:51.493Z,7.22
2022-08-21T12:13:06.407Z,7.87
2022-08-21T12:14:09.311Z,6.90
2022-08-21T12:15:21.636Z,8.25
2022-08-21T12:16:39.694Z,7.47
2022-08-21T12:17:54.603Z,9.20
2022-08-21T12:19:11.451Z,7.10
2022-08-21T12:20:47.434Z,5.97
2022-08-21T12:22:02.652Z,7.05
2022-08-21T12:23:13.221Z,6.85
2022-08-21T12:24:16.116Z,7.15
2022-08-21T12:25:22.050Z,5.78
2022-08-21T12:26:39.548Z,9.10
2022-08-21T12:27:48.903Z,10.32
2022-08-21T12:28:52.473Z,7.97
2022-08-21T12:30:20.999Z,6.12
2022-08-21T12:31:29.360Z,8.93
2022-08-21T12:32:48.246Z,9.70
2022-08-21T12:33:58.238Z,6.20
2022-08-21T12:35:07.066Z,6.70
2022-08-21T12:36:25.459Z,7.25
2022-08-21T12:37:45.540Z,7.47
2022-08-21T12:39:03.475Z,7.07
2022-08-21T12:40:22.968Z,7.70
2022-08-21T12:41:48.399Z,6.43
2022-08-21T12:42:58.807Z,6.12
2022-08-21T12:44:12.031Z,8.43
2022-08-21T12:45:26.225Z,8.57
2022-08-21T12:46:51.598Z,8.63
2022-08-21T12:48:06.112Z,9.23
2022-08-21T12:49:20.560Z,7.82
2022-08-21T12:50:49.086Z,5.97
2022-08-21T12:52:02.847Z,7.55
2022-08-21T12:53:20.577Z,6.28
2022-08-21T12:54:33.874Z,7.15
2022-08-21T12:55:41.655Z,7.75
2022-08-21T12:56:44.606Z,6.90
2022-08-21T12:57:47.786Z,6.43
2022-08-21T12:58:56.686Z,8.93
2022-08-21T13:00:04.878Z,5.07
2022-08-21T13:01:19.841Z,7.30
2022-08-21T13:02:36.482Z,7.80
2022-08-21T13:03:40.467Z,6.72
2022-08-21T13:04:44.124Z,5.25
2022-08-21T13:05:47.370Z,6.05
2022-08-21T13:06:55.614Z,4.62
2022-08-21T13:07:59.334Z,4.40
2022-08-21T13:09:07.930Z,6.43
2022-08-21T13:10:21.857Z,5.35
2022-08-21T13:11:33.698Z,5.05
2022-08-21T13:12:37.703Z,5.00
2022-08-21T13:13:46.880Z,3.90
2022-08-21T13:14:58.559Z,5.68
2022-08-21T13:16:07.974Z,5.45
2022-08-21T13:17:13.227Z,4.37
2022-08-21T13:18:33.469Z,6.07
2022-08-21T13:19:37.421Z,4.25
2022-08-21T13:20:44.520Z,4.75
2022-08-21T13:21:47.856Z,3.67
2022-08-21T13:22:51.794Z,5.53
2022-08-21T13:23:54.802Z,3.55
2022-08-21T13:24:57.952Z,3.78
2022-08-21T13:26:18.359Z,3.42
2022-08-21T13:27:31.614Z,7.50
2022-08-21T13:28:39.168Z,3.60
2022-08-21T13:29:42.219Z,6.90
2022-08-21T13:30:57.115Z,3.58
2022-08-21T13:32:03.778Z,3.75
2022-08-21T13:33:12.410Z,4.68
2022-08-21T13:34:18.317Z,4.53
2022-08-21T13:35:29.323Z,7.37
2022-08-21T13:36:36.836Z,4.45
2022-08-21T13:37:42.360Z,3.87
2022-08-21T13:38:46.785Z,3.90
2022-08-21T13:39:55.019Z,2.65
2022-08-21T13:41:05.777Z,3.40
2022-08-21T13:42:13.610Z,3.95
2022-08-21T13:43:21.245Z,2.70
2022-08-21T13:44:42.888Z,3.78
2022-08-21T13:45:50.558Z,3.58
2022-08-21T13:46:56.002Z,4.72
2022-08-21T13:48:03.056Z,5.07
2022-08-21T13:49:11.859Z,3.40
2022-08-21T13:50:18.942Z,2.62
2022-08-21T13:51:23.837Z,5.10
2022-08-21T13:52:28.476Z,2.65
2022-08-21T13:53:47.870Z,3.17
2022-08-21T13:55:08.797Z,10.82
2022-08-21T13:56:34.344Z,5.22
2022-08-21T13:57:37.435Z,3.25
2022-08-21T13:58:46.574Z,3.37
2022-08-21T13:59:50.022Z,5.50
2022-08-21T14:00:57.127Z,3.55
2022-08-21T14:02:14.793Z,2.95
2022-08-21T14:03:43.803Z,3.00
2022-08-21T14:04:59.719Z,4.62
2022-08-21T14:06:03.222Z,3.55
2022-08-21T14:07:19.392Z,4.40
2022-08-21T14:08:38.798Z,2.60
2022-08-21T14:09:44.480Z,3.45
2022-08-21T14:10:55.947Z,8.68
2022-08-21T14:12:04.793Z,2.72
2022-08-21T14:13:08.790Z,3.05
2022-08-21T14:14:35.156Z,2.47
2022-08-21T14:15:38.140Z,4.53
2022-08-21T14:16:47.287Z,3.80
2022-08-21T14:17:50.580Z,3.08
2022-08-21T14:19:03.987Z,2.60
2022-08-21T14:20:09.276Z,4.68
2022-08-21T14:21:13.152Z,3.22
2022-08-21T14:22:25.248Z,6.07
2022-08-21T14:23:28.712Z,3.28
2022-08-21T14:24:32.069Z,5.12
2022-08-21T14:25:46.829Z,4.60
2022-08-21T14:27:06.162Z,2.42
2022-08-21T14:28:37.971Z,4.60
2022-08-21T14:29:45.512Z,2.75
2022-08-21T14:30:51.569Z,4.37
2022-08-21T14:31:59.716Z,2.60
2022-08-21T14:33:05.189Z,3.60
2022-08-21T14:34:13.744Z,3.72
2022-08-21T14:35:23.597Z,3.10
2022-08-21T14:36:28.287Z,2.92
2022-08-21T14:37:31.195Z,4.57
2022-08-21T14:38:38.053Z,2.87
2022-08-21T14:39:44.749Z,5.90
2022-08-21T14:40:58.110Z,3.20
2022-08-21T14:42:02.363Z,4.65
2022-08-21T14:43:05.354Z,4.28
2022-08-21T14:44:09.945Z,5.20
2022-08-21T14:45:16.498Z,4.87
2022-08-21T14:46:28.325Z,5.18
2022-08-21T14:47:31.256Z,3.72
2022-08-21T14:48:34.815Z,3.72
2022-08-21T14:49:38.128Z,4.03
2022-08-21T14:50:41.684Z,3.72
2022-08-21T14:51:53.963Z,2.83
2022-08-21T14:52:57.519Z,3.30
2022-08-21T14:54:00.892Z,3.45
2022-08-21T14:55:05.591Z,2.90
2022-08-21T14:56:08.927Z,5.75
2022-08-21T14:57:17.472Z,4.18
2022-08-21T14:58:21.482Z,3.53
2022-08-21T14:59:24.988Z,5.37
2022-08-21T15:00:36.017Z,4.70
2022-08-21T15:01:40.969Z,2.85
2022-08-21T15:02:50.508Z,5.72
2022-08-21T15:03:56.568Z,6.87